createdAt,value
2017-11-21T00:00:13.519Z,3.17
2017-11-21T00:02:40.106Z,3.13
2017-11-21T00:05:06.693Z,3.40
2017-11-21T00:07:33.313Z,3.27
2017-11-21T00:09:59.938Z,3.63
2017-11-21T00:12:26.537Z,3.43
2017-11-21T00:14:53.158Z,3.37
2017-11-21T00:17:19.783Z,3.10
2017-11-21T00:19:46.385Z,3.40
2017-11-21T00:22:12.988Z,3.17
2017-11-21T00:24:39.595Z,2.90
2017-11-21T00:27:06.217Z,2.40
2017-11-21T00:29:32.823Z,2.47
2017-11-21T00:31:59.470Z,2.90
2017-11-21T00:34:26.070Z,3.10
2017-11-21T00:36:52.674Z,3.17
2017-11-21T00:39:19.267Z,2.60
2017-11-21T00:41:45.895Z,2.83
2017-11-21T00:44:12.508Z,2.03
2017-11-21T00:46:39.098Z,2.30
2017-11-21T00:49:05.727Z,2.17
2017-11-21T00:51:32.343Z,2.70
2017-11-21T00:53:58.990Z,1.80
2017-11-21T00:56:25.603Z,1.97
2017-11-21T00:58:52.228Z,2.00
2017-11-21T01:01:18.821Z,2.30
2017-11-21T01:03:45.450Z,2.37
2017-11-21T01:06:12.138Z,2.03
2017-11-21T01:08:38.752Z,1.90
2017-11-21T01:11:05.381Z,2.50
2017-11-21T01:13:32.000Z,2.30
2017-11-21T01:15:58.614Z,2.67
2017-11-21T01:18:25.215Z,2.10
2017-11-21T01:20:51.846Z,1.80
2017-11-21T01:23:18.421Z,2.10
2017-11-21T01:25:45.047Z,1.90
2017-11-21T01:28:11.648Z,2.13
2017-11-21T01:30:38.278Z,2.07
2017-11-21T01:33:04.889Z,1.83
2017-11-21T01:35:31.521Z,1.83
2017-11-21T01:37:58.147Z,1.90
2017-11-21T01:40:25.714Z,2.37
2017-11-21T01:42:52.332Z,2.10
2017-11-21T01:45:18.937Z,1.90
2017-11-21T01:47:45.570Z,2.60
2017-11-21T01:50:12.146Z,1.70
2017-11-21T01:52:38.735Z,1.80
2017-11-21T01:55:05.356Z,2.20
2017-11-21T01:57:31.982Z,1.90
2017-11-21T01:59:58.561Z,2.00
2017-11-21T02:02:25.179Z,1.80
2017-11-21T02:04:51.788Z,1.80
2017-11-21T02:07:18.382Z,1.73
2017-11-21T02:09:45.001Z,1.87
2017-11-21T02:12:11.596Z,1.73
2017-11-21T02:14:38.198Z,1.70
2017-11-21T02:17:04.807Z,1.83
2017-11-21T02:19:31.419Z,1.33
2017-11-21T02:21:58.007Z,2.43
2017-11-21T02:24:24.609Z,1.70
2017-11-21T02:26:51.231Z,1.53
2017-11-21T02:29:17.871Z,1.67
2017-11-21T02:31:44.478Z,1.73
2017-11-21T02:34:11.116Z,1.73
2017-11-21T02:39:18.845Z,1.50
2017-11-21T02:41:45.484Z,1.60
2017-11-21T02:44:12.129Z,1.57
2017-11-21T02:46:38.737Z,1.87
2017-11-21T02:49:05.364Z,1.43
2017-11-21T02:51:31.948Z,2.00
2017-11-21T02:53:58.586Z,1.77
2017-11-21T02:56:25.173Z,1.90
2017-11-21T03:42:31.038Z,2.33
2017-11-21T03:44:57.610Z,3.03
2017-11-21T03:47:24.219Z,2.57
2017-11-21T03:49:50.830Z,3.00
2017-11-21T03:52:17.462Z,3.10
2017-11-21T03:54:44.067Z,3.03
2017-11-21T03:57:10.650Z,2.63
2017-11-21T03:59:37.281Z,3.40
2017-11-21T04:02:03.853Z,3.10
2017-11-21T04:04:30.453Z,3.00
2017-11-21T04:06:57.066Z,3.07
2017-11-21T04:09:23.668Z,2.90
2017-11-21T04:11:50.269Z,3.50
2017-11-21T04:14:16.874Z,2.97
2017-11-21T04:16:43.456Z,3.00
2017-11-21T04:19:10.070Z,3.20
2017-11-21T04:21:36.655Z,3.13
2017-11-21T04:24:03.250Z,3.23
2017-11-21T04:26:30.294Z,3.63
2017-11-21T04:28:56.894Z,2.70
2017-11-21T04:31:23.515Z,3.40
2017-11-21T04:33:50.112Z,2.97
2017-11-21T04:36:16.739Z,3.17
2017-11-21T04:38:43.309Z,3.17
2017-11-21T04:41:09.951Z,2.73
2017-11-21T04:43:36.536Z,3.60
2017-11-21T04:46:03.142Z,3.67
2017-11-21T04:48:29.780Z,3.33
2017-11-21T04:50:56.384Z,3.27
2017-11-21T04:53:22.963Z,3.50
2017-11-21T04:55:49.568Z,2.93
2017-11-21T04:58:16.179Z,3.63
2017-11-21T05:00:42.839Z,3.47
2017-11-21T05:03:09.484Z,4.00
2017-11-21T05:05:36.082Z,3.40
2017-11-21T05:08:02.703Z,3.80
2017-11-21T05:10:29.338Z,3.47
2017-11-21T05:12:55.941Z,2.83
2017-11-21T05:15:22.532Z,2.90
2017-11-21T05:17:49.153Z,3.90
2017-11-21T05:20:15.759Z,2.30
2017-11-21T05:22:42.376Z,3.87
2017-11-21T05:25:09.291Z,3.73
2017-11-21T05:27:35.883Z,3.17
2017-11-21T05:30:02.512Z,3.30
2017-11-21T05:32:34.849Z,3.60
2017-11-21T05:35:01.477Z,3.10
2017-11-21T05:37:28.094Z,2.97
2017-11-21T05:39:54.962Z,3.47
2017-11-21T05:42:21.576Z,3.30
2017-11-21T05:44:48.344Z,3.20
2017-11-21T05:47:14.965Z,3.00
2017-11-21T05:49:41.593Z,3.30
2017-11-21T05:52:08.223Z,3.10
2017-11-21T05:54:34.885Z,3.70
2017-11-21T05:57:01.491Z,3.13
2017-11-21T05:59:28.489Z,3.30
2017-11-21T06:01:55.049Z,3.40
2017-11-21T06:04:21.662Z,3.47
2017-11-21T06:06:48.276Z,3.87
2017-11-21T06:09:15.620Z,4.23
2017-11-21T06:11:42.242Z,4.33
2017-11-21T06:14:08.871Z,4.17
2017-11-21T06:16:35.491Z,4.20
2017-11-21T06:19:02.085Z,4.40
2017-11-21T06:21:29.684Z,4.37
2017-11-21T06:23:56.271Z,4.87
2017-11-21T06:26:22.883Z,5.23
2017-11-21T06:28:49.498Z,4.80
2017-11-21T06:31:16.128Z,4.07
2017-11-21T06:33:42.835Z,4.67
2017-11-21T06:36:09.422Z,4.87
2017-11-21T06:38:36.068Z,5.07
2017-11-21T06:41:02.661Z,4.23
2017-11-21T06:43:29.271Z,4.37
2017-11-21T06:45:55.853Z,5.13
2017-11-21T06:48:22.515Z,4.40
2017-11-21T06:50:49.123Z,4.87
2017-11-21T06:53:15.741Z,4.80
2017-11-21T06:55:42.377Z,4.20
2017-11-21T06:58:08.975Z,4.47
2017-11-21T07:00:35.596Z,4.30
2017-11-21T07:03:02.231Z,3.23
2017-11-21T07:05:28.830Z,3.77
2017-11-21T07:07:55.458Z,4.23
2017-11-21T07:10:22.059Z,3.60
2017-11-21T07:12:48.691Z,3.30
2017-11-21T07:15:15.303Z,3.30
2017-11-21T07:17:41.907Z,3.10
2017-11-21T07:20:08.522Z,4.50
2017-11-21T07:22:35.149Z,4.20
2017-11-21T07:25:01.767Z,3.07
2017-11-21T07:27:28.368Z,3.27
2017-11-21T07:29:54.983Z,3.50
2017-11-21T07:32:21.574Z,3.40
2017-11-21T07:34:48.183Z,2.83
2017-11-21T07:37:14.832Z,2.90
2017-11-21T07:39:41.523Z,3.40
2017-11-21T07:42:08.306Z,3.60
2017-11-21T07:44:34.914Z,3.43
2017-11-21T07:47:01.516Z,2.93
2017-11-21T07:49:28.147Z,3.00
2017-11-21T07:51:54.768Z,3.07
2017-11-21T07:54:21.428Z,2.30
2017-11-21T07:56:48.045Z,2.57
2017-11-21T07:59:14.646Z,3.07
2017-11-21T08:01:41.311Z,3.20
2017-11-21T08:04:07.904Z,3.00
2017-11-21T08:06:34.545Z,2.50
2017-11-21T08:09:01.146Z,2.83
2017-11-21T08:11:27.797Z,2.43
2017-11-21T08:13:54.417Z,2.17
2017-11-21T08:16:21.021Z,2.47
2017-11-21T08:18:47.662Z,2.10
2017-11-21T08:21:14.257Z,1.97
2017-11-21T08:23:40.884Z,2.13
2017-11-21T08:26:07.459Z,2.17
2017-11-21T08:28:34.076Z,2.33
2017-11-21T08:31:01.353Z,1.67
2017-11-21T08:33:27.959Z,1.73
2017-11-21T08:35:54.615Z,1.37
2017-11-21T08:38:21.229Z,2.13
2017-11-21T08:40:47.844Z,1.87
2017-11-21T08:43:14.469Z,1.67
2017-11-21T08:45:41.097Z,2.23
2017-11-21T08:48:07.713Z,1.93
2017-11-21T08:50:34.328Z,1.50
2017-11-21T08:53:00.914Z,1.60
2017-11-21T08:55:27.532Z,1.60
2017-11-21T08:57:54.187Z,1.90
2017-11-21T09:00:20.826Z,2.63
2017-11-21T09:02:47.614Z,2.50
2017-11-21T09:05:14.213Z,1.87
2017-11-21T09:07:40.866Z,2.03
2017-11-21T09:10:07.517Z,2.07
2017-11-21T09:12:34.146Z,1.87
2017-11-21T09:15:00.737Z,1.50
2017-11-21T09:17:27.363Z,1.83
2017-11-21T09:19:54.535Z,2.67
2017-11-21T09:22:21.174Z,2.10
2017-11-21T09:24:47.887Z,2.77
2017-11-21T09:27:14.480Z,2.30
2017-11-21T09:29:41.104Z,1.93
2017-11-21T09:32:07.692Z,2.10
2017-11-21T09:34:34.310Z,2.10
2017-11-21T09:37:00.924Z,1.60
2017-11-21T09:39:27.529Z,2.53
2017-11-21T09:41:54.117Z,2.10
2017-11-21T09:44:20.739Z,5.43
2017-11-21T09:46:47.320Z,5.90
2017-11-21T09:49:13.927Z,3.17
2017-11-21T09:51:40.526Z,2.10
2017-11-21T09:54:07.134Z,2.47
2017-11-21T09:56:33.731Z,2.10
2017-11-21T09:59:00.344Z,2.60
2017-11-21T10:01:26.985Z,2.17
2017-11-21T10:03:53.572Z,2.50
2017-11-21T10:06:20.190Z,2.50
2017-11-21T10:08:46.777Z,2.20
2017-11-21T10:11:13.434Z,2.57
2017-11-21T10:13:40.242Z,2.20
2017-11-21T10:16:06.887Z,2.80
2017-11-21T10:18:33.677Z,2.43
2017-11-21T10:21:00.298Z,3.10
2017-11-21T10:23:26.874Z,2.23
2017-11-21T10:25:53.484Z,2.40
2017-11-21T10:28:20.121Z,15.90
2017-11-21T10:30:46.709Z,2.10
2017-11-21T10:33:13.358Z,3.00
2017-11-21T10:35:39.950Z,2.70
2017-11-21T10:38:06.575Z,2.67
2017-11-21T10:40:33.186Z,2.47
2017-11-21T10:42:59.764Z,3.37
2017-11-21T10:45:26.394Z,2.80
2017-11-21T10:47:53.006Z,2.80
2017-11-21T10:50:19.597Z,3.07
2017-11-21T10:52:46.203Z,2.70
2017-11-21T10:55:12.860Z,2.90
2017-11-21T10:57:39.474Z,2.60
2017-11-21T11:00:06.094Z,2.63
2017-11-21T11:02:32.756Z,2.20
2017-11-21T11:04:59.339Z,2.60
2017-11-21T11:07:25.957Z,2.63
2017-11-21T11:09:52.614Z,2.13
2017-11-21T11:12:19.233Z,2.00
2017-11-21T11:14:45.868Z,2.83
2017-11-21T11:17:12.484Z,2.43
2017-11-21T11:19:39.097Z,2.57
2017-11-21T11:22:05.701Z,3.33
2017-11-21T11:24:32.333Z,2.90
2017-11-21T11:26:58.933Z,3.30
2017-11-21T11:29:25.546Z,4.17
2017-11-21T11:31:52.135Z,3.50
2017-11-21T11:34:18.760Z,3.37
2017-11-21T11:36:45.466Z,3.20
2017-11-21T11:39:12.080Z,3.40
2017-11-21T11:41:38.679Z,2.60
2017-11-21T11:44:05.339Z,2.90
2017-11-21T11:46:31.950Z,2.60
2017-11-21T11:48:58.562Z,2.53
2017-11-21T11:51:25.187Z,2.33
2017-11-21T11:53:51.801Z,4.40
2017-11-21T11:56:18.410Z,3.90
2017-11-21T11:58:45.033Z,2.87
2017-11-21T12:01:11.859Z,2.60
2017-11-21T12:03:38.494Z,2.83
2017-11-21T12:06:05.088Z,2.77
2017-11-21T12:08:31.803Z,2.90
2017-11-21T12:10:58.441Z,2.70
2017-11-21T12:13:25.044Z,3.43
2017-11-21T12:15:51.691Z,2.80
2017-11-21T12:18:18.322Z,2.63
2017-11-21T12:20:44.928Z,2.60
2017-11-21T12:23:11.562Z,4.73
2017-11-21T12:25:38.196Z,3.93
2017-11-21T12:28:04.813Z,3.10
2017-11-21T12:30:31.413Z,4.80
2017-11-21T12:32:58.122Z,2.97
2017-11-21T12:35:24.725Z,4.63
2017-11-21T12:37:51.333Z,3.50
2017-11-21T12:40:17.934Z,3.90
2017-11-21T12:42:44.597Z,3.50
2017-11-21T12:45:11.190Z,3.53
2017-11-21T12:47:37.770Z,3.57
2017-11-21T12:50:04.403Z,5.60
2017-11-21T12:52:31.022Z,3.90
2017-11-21T12:54:57.639Z,4.73
2017-11-21T12:57:24.281Z,4.67
2017-11-21T12:59:50.978Z,4.90
2017-11-21T13:02:17.558Z,5.63
2017-11-21T13:04:44.184Z,6.10
2017-11-21T13:07:10.798Z,5.80
2017-11-21T13:09:37.464Z,6.80
2017-11-21T13:12:04.078Z,5.53
2017-11-21T13:14:30.703Z,6.90
2017-11-21T13:16:57.330Z,6.07
2017-11-21T13:19:24.040Z,5.80
2017-11-21T13:21:50.675Z,7.20
2017-11-21T13:24:17.279Z,7.10
2017-11-21T13:26:45.851Z,7.57
2017-11-21T13:29:12.454Z,7.47
2017-11-21T13:31:39.060Z,7.80
2017-11-21T13:34:05.718Z,7.90
2017-11-21T13:36:32.323Z,7.90
2017-11-21T13:38:58.966Z,9.20
2017-11-21T13:41:25.567Z,8.10
2017-11-21T13:43:52.222Z,8.37
2017-11-21T13:46:18.877Z,8.30
2017-11-21T13:48:45.485Z,7.60
2017-11-21T13:51:12.119Z,9.47
2017-11-21T13:53:38.753Z,9.40
2017-11-21T13:56:05.341Z,9.37
2017-11-21T13:58:32.003Z,8.23
2017-11-21T14:00:58.616Z,11.80
2017-11-21T14:03:25.244Z,9.43
2017-11-21T14:05:51.877Z,8.33
2017-11-21T14:08:18.590Z,9.37
2017-11-21T14:10:45.208Z,8.90
2017-11-21T14:13:11.891Z,9.90
2017-11-21T14:15:38.552Z,8.83
2017-11-21T14:18:05.174Z,8.07
2017-11-21T14:20:31.796Z,8.83
2017-11-21T14:22:58.442Z,8.60
2017-11-21T14:25:25.059Z,9.53
2017-11-21T14:27:51.719Z,9.07
2017-11-21T14:30:18.315Z,9.00
2017-11-21T14:32:44.991Z,9.97
2017-11-21T14:35:11.580Z,9.10
2017-11-21T14:37:38.258Z,9.77
2017-11-21T14:40:04.874Z,8.60
2017-11-21T14:42:31.498Z,7.33
2017-11-21T14:44:58.109Z,7.53
2017-11-21T14:47:24.806Z,7.40
2017-11-21T14:49:51.373Z,7.70
2017-11-21T14:52:18.002Z,7.30
2017-11-21T14:54:44.607Z,7.20
2017-11-21T14:57:11.223Z,6.50
2017-11-21T14:59:37.849Z,9.77
2017-11-21T15:02:04.453Z,9.40
2017-11-21T15:04:31.071Z,7.90
2017-11-21T15:06:57.677Z,7.33
2017-11-21T15:09:24.300Z,7.90
2017-11-21T15:11:50.889Z,8.10
2017-11-21T15:14:17.489Z,8.23
2017-11-21T15:16:44.106Z,8.67
2017-11-21T15:19:10.697Z,7.90
2017-11-21T15:21:37.324Z,8.27
2017-11-21T15:24:03.977Z,7.40
2017-11-21T15:26:30.581Z,8.23
2017-11-21T15:28:57.278Z,8.20
2017-11-21T15:31:23.925Z,9.00
2017-11-21T15:33:50.543Z,9.00
2017-11-21T15:36:17.176Z,8.60
2017-11-21T15:38:43.787Z,8.83
2017-11-21T15:41:10.653Z,9.50
2017-11-21T15:43:37.308Z,8.60
2017-11-21T15:46:04.215Z,9.02
2017-11-21T15:48:30.841Z,10.83
2017-11-21T15:50:57.481Z,10.30
2017-11-21T15:53:24.602Z,11.20
2017-11-21T15:55:51.220Z,11.10
2017-11-21T15:58:17.858Z,14.43
2017-11-21T16:00:44.517Z,12.43
2017-11-21T16:03:11.161Z,13.80
2017-11-21T16:05:37.842Z,14.50
2017-11-21T16:08:04.509Z,14.43
2017-11-21T16:10:31.082Z,14.40
2017-11-21T16:12:57.726Z,14.60
2017-11-21T16:15:24.318Z,14.70
2017-11-21T16:17:50.938Z,15.20
2017-11-21T16:20:17.600Z,14.63
2017-11-21T16:22:44.498Z,13.90
2017-11-21T16:25:11.114Z,15.20
2017-11-21T16:27:37.816Z,15.23
2017-11-21T16:30:04.483Z,14.57
2017-11-21T16:32:31.124Z,13.43
2017-11-21T16:34:57.742Z,14.27
2017-11-21T16:37:24.370Z,14.20
2017-11-21T16:39:51.008Z,14.00
2017-11-21T16:42:17.622Z,15.73
2017-11-21T16:44:44.269Z,14.50
2017-11-21T16:47:10.877Z,13.20
2017-11-21T16:49:37.474Z,13.23
2017-11-21T16:52:04.130Z,12.10
2017-11-21T16:54:30.941Z,15.50
2017-11-21T16:56:57.628Z,14.90
2017-11-21T16:59:24.242Z,14.17
2017-11-21T17:01:50.937Z,14.13
2017-11-21T17:04:17.697Z,14.17
2017-11-21T17:06:44.418Z,13.30
2017-11-21T17:09:11.035Z,13.27
2017-11-21T17:11:37.805Z,14.00
2017-11-21T17:14:04.470Z,13.50
2017-11-21T17:16:31.255Z,14.57
2017-11-21T17:18:57.939Z,14.47
2017-11-21T17:21:24.622Z,13.47
2017-11-21T17:23:51.405Z,12.80
2017-11-21T17:26:18.094Z,12.23
2017-11-21T17:28:44.734Z,13.80
2017-11-21T17:31:11.531Z,13.67
2017-11-21T17:33:38.245Z,14.40
2017-11-21T17:36:04.889Z,13.63
2017-11-21T17:38:31.690Z,13.70
2017-11-21T17:40:58.323Z,13.50
2017-11-21T17:43:25.055Z,16.67
2017-11-21T17:45:51.744Z,13.50
2017-11-21T17:48:18.352Z,11.67
2017-11-21T17:50:45.015Z,13.33
2017-11-21T17:53:11.791Z,11.90
2017-11-21T17:55:38.435Z,11.13
2017-11-21T17:58:05.110Z,11.40
2017-11-21T18:00:31.870Z,10.50
2017-11-21T18:02:58.658Z,11.40
2017-11-21T18:05:25.284Z,11.50
2017-11-21T18:07:52.093Z,11.07
2017-11-21T18:10:18.778Z,10.10
2017-11-21T18:12:45.517Z,9.63
2017-11-21T18:15:12.138Z,9.30
2017-11-21T18:17:38.769Z,11.10
2017-11-21T18:20:05.423Z,10.13
2017-11-21T18:22:32.072Z,9.70
2017-11-21T18:24:58.709Z,9.10
2017-11-21T18:27:25.338Z,9.60
2017-11-21T18:29:52.594Z,10.20
2017-11-21T18:32:19.287Z,9.57
2017-11-21T18:34:45.935Z,8.93
2017-11-21T18:37:13.341Z,8.60
2017-11-21T18:39:39.981Z,9.97
2017-11-21T18:42:06.642Z,9.10
2017-11-21T18:44:33.346Z,9.17
2017-11-21T18:46:59.941Z,9.40
2017-11-21T18:49:26.570Z,9.73
2017-11-21T18:51:53.235Z,9.83
2017-11-21T18:54:19.880Z,9.23
2017-11-21T18:56:46.510Z,8.97
2017-11-21T18:59:13.123Z,10.40
2017-11-21T19:01:39.841Z,11.23
2017-11-21T19:04:06.459Z,10.70
2017-11-21T19:06:33.374Z,9.30
2017-11-21T19:09:02.807Z,9.13
2017-11-21T19:11:29.843Z,10.20
2017-11-21T19:13:57.982Z,11.20
2017-11-21T19:16:24.670Z,10.10
2017-11-21T19:18:52.039Z,10.43
2017-11-21T19:21:19.282Z,9.37
2017-11-21T19:23:46.483Z,11.07
2017-11-21T19:26:13.441Z,9.77
2017-11-21T19:28:40.373Z,10.77
2017-11-21T19:31:06.979Z,10.23
2017-11-21T19:33:33.622Z,9.83
2017-11-21T19:36:00.251Z,12.10
2017-11-21T19:38:27.051Z,9.47
2017-11-21T19:40:53.715Z,10.53
2017-11-21T19:43:20.345Z,9.60
2017-11-21T19:45:47.057Z,8.97
2017-11-21T19:48:13.719Z,12.97
2017-11-21T19:50:40.360Z,10.00
2017-11-21T19:53:07.214Z,10.10
2017-11-21T19:55:33.839Z,9.60
2017-11-21T19:58:00.500Z,9.53
2017-11-21T20:00:29.204Z,8.60
2017-11-21T20:02:56.182Z,9.67
2017-11-21T20:05:23.470Z,9.60
2017-11-21T20:07:50.912Z,8.80
2017-11-21T20:10:17.531Z,9.57
2017-11-21T20:12:44.505Z,10.60
2017-11-21T20:15:11.212Z,8.70
2017-11-21T20:17:38.007Z,10.80
2017-11-21T20:20:05.156Z,8.20
2017-11-21T20:22:31.955Z,7.93
2017-11-21T20:24:58.597Z,8.70
2017-11-21T20:27:25.554Z,9.37
2017-11-21T20:29:52.622Z,9.00
2017-11-21T20:32:19.295Z,12.90
2017-11-21T20:34:45.963Z,9.10
2017-11-21T20:37:12.689Z,10.33
2017-11-21T20:39:39.376Z,8.97
2017-11-21T20:42:05.997Z,9.33
2017-11-21T20:44:32.705Z,7.87
2017-11-21T20:46:59.335Z,9.97
2017-11-21T20:49:26.056Z,10.40
2017-11-21T20:51:52.743Z,9.27
2017-11-21T20:54:19.402Z,11.10
2017-11-21T20:56:46.209Z,11.20
2017-11-21T20:59:12.866Z,10.20
2017-11-21T21:01:39.608Z,8.73
2017-11-21T21:04:06.544Z,9.30
2017-11-21T21:06:34.922Z,9.13
2017-11-21T21:09:01.892Z,8.50
2017-11-21T21:11:28.590Z,8.93
2017-11-21T21:13:55.616Z,9.13
2017-11-21T21:16:22.305Z,8.50
2017-11-21T21:18:51.004Z,9.33
2017-11-21T21:21:19.644Z,9.67
2017-11-21T21:23:46.815Z,9.40
2017-11-21T21:26:14.319Z,10.67
2017-11-21T21:28:41.240Z,9.70
2017-11-21T21:31:10.066Z,8.93
2017-11-21T21:33:36.777Z,8.03
2017-11-21T21:36:07.879Z,8.23
2017-11-21T21:38:34.482Z,9.30
2017-11-21T21:41:01.493Z,9.03
2017-11-21T21:43:28.262Z,9.60
2017-11-21T21:45:56.333Z,10.30
2017-11-21T21:48:23.351Z,11.80
2017-11-21T21:50:49.990Z,8.17
2017-11-21T21:53:18.228Z,8.17
2017-11-21T21:55:44.894Z,9.37
2017-11-21T21:58:11.551Z,9.60
2017-11-21T22:00:38.165Z,9.30
2017-11-21T22:03:05.680Z,10.20
2017-11-21T22:05:33.207Z,8.83
2017-11-21T22:07:59.910Z,9.57
2017-11-21T22:10:26.521Z,10.30
2017-11-21T22:12:53.191Z,9.67
2017-11-21T22:15:19.814Z,9.80
2017-11-21T22:17:46.860Z,9.93
2017-11-21T22:20:13.462Z,9.80
2017-11-21T22:22:40.487Z,10.60
2017-11-21T22:25:07.134Z,10.73
2017-11-21T22:27:33.782Z,15.23
2017-11-21T22:30:00.595Z,13.80
2017-11-21T22:32:27.263Z,10.07
2017-11-21T22:34:53.887Z,10.40
2017-11-21T22:37:21.024Z,10.07
2017-11-21T22:39:47.639Z,10.27
2017-11-21T22:42:14.292Z,10.00
2017-11-21T22:44:41.408Z,10.27
2017-11-21T22:47:08.037Z,9.17
2017-11-21T22:49:34.902Z,9.67
2017-11-21T22:52:03.003Z,11.17
2017-11-21T22:54:31.177Z,10.20
2017-11-21T22:56:57.999Z,9.80
2017-11-21T22:59:25.154Z,9.93
2017-11-21T23:01:52.043Z,9.87
2017-11-21T23:07:02.744Z,10.00
2017-11-21T23:09:29.654Z,9.40
2017-11-21T23:11:56.423Z,9.87
2017-11-21T23:14:23.485Z,10.13
